createdAt,value
2019-02-18T00:01:59.365Z,82.70
2019-02-18T00:04:25.920Z,82.70
2019-02-18T00:06:52.476Z,81.90
2019-02-18T00:09:18.988Z,81.40
2019-02-18T00:11:45.539Z,81.00
2019-02-18T00:14:12.137Z,80.60
2019-02-18T00:16:38.653Z,80.70
2019-02-18T00:19:05.209Z,81.10
2019-02-18T00:21:31.964Z,81.30
2019-02-18T00:23:58.488Z,81.30
2019-02-18T00:26:25.040Z,81.10
2019-02-18T00:28:51.600Z,81.30
2019-02-18T00:31:18.115Z,81.40
2019-02-18T00:33:44.673Z,81.50
2019-02-18T00:36:11.234Z,81.50
2019-02-18T00:38:37.744Z,81.80
2019-02-18T00:41:04.309Z,82.40
2019-02-18T00:43:30.900Z,82.40
2019-02-18T00:45:57.421Z,82.90
2019-02-18T00:48:23.972Z,82.90
2019-02-18T00:50:50.570Z,82.70
2019-02-18T00:53:17.088Z,82.50
2019-02-18T00:55:43.643Z,82.40
2019-02-18T00:58:10.204Z,82.30
2019-02-18T01:00:36.712Z,82.20
2019-02-18T01:03:03.472Z,82.50
2019-02-18T01:05:29.985Z,82.50
2019-02-18T01:07:56.549Z,82.90
2019-02-18T01:10:23.093Z,82.60
2019-02-18T01:12:49.613Z,82.90
2019-02-18T01:15:16.168Z,82.90
2019-02-18T01:17:42.726Z,83.10
2019-02-18T01:20:10.450Z,83.20
2019-02-18T01:22:36.997Z,83.20
2019-02-18T01:25:05.252Z,83.40
2019-02-18T01:27:31.768Z,83.40
2019-02-18T01:29:58.324Z,83.40
2019-02-18T01:32:24.879Z,83.60
2019-02-18T01:34:51.397Z,83.60
2019-02-18T01:37:17.953Z,83.90
2019-02-18T01:39:44.519Z,83.90
2019-02-18T01:42:11.070Z,84.20
2019-02-18T01:44:37.623Z,84.40
2019-02-18T01:47:04.172Z,84.70
2019-02-18T01:49:30.689Z,84.70
2019-02-18T01:51:57.356Z,85.10
2019-02-18T01:54:23.913Z,84.70
2019-02-18T01:56:50.432Z,85.10
2019-02-18T01:59:16.984Z,86.10
2019-02-18T02:01:43.544Z,85.80
2019-02-18T02:04:10.063Z,85.50
2019-02-18T02:06:36.621Z,85.40
2019-02-18T02:09:05.874Z,85.80
2019-02-18T02:11:32.393Z,85.60
2019-02-18T02:13:58.952Z,85.60
2019-02-18T02:16:25.516Z,85.60
2019-02-18T02:18:52.031Z,85.70
2019-02-18T02:21:18.585Z,85.70
2019-02-18T02:23:45.144Z,85.90
2019-02-18T02:26:11.660Z,85.90
2019-02-18T02:28:38.218Z,85.70
2019-02-18T02:31:04.787Z,85.40
2019-02-18T02:33:31.289Z,85.80
2019-02-18T02:35:57.849Z,85.60
2019-02-18T02:38:24.400Z,86.10
2019-02-18T02:40:50.911Z,86.50
2019-02-18T02:43:17.465Z,87.00
2019-02-18T02:45:44.061Z,87.00
2019-02-18T02:48:10.578Z,86.80
2019-02-18T02:50:37.129Z,86.60
2019-02-18T02:53:05.217Z,86.80
2019-02-18T02:55:31.732Z,86.80
2019-02-18T02:57:58.289Z,86.60
2019-02-18T03:00:25.841Z,86.40
2019-02-18T03:02:52.365Z,86.00
2019-02-18T03:05:19.025Z,85.70
2019-02-18T03:07:45.536Z,85.50
2019-02-18T03:10:12.393Z,85.10
2019-02-18T03:12:38.917Z,84.80
2019-02-18T03:15:06.773Z,84.60
2019-02-18T03:17:33.294Z,84.20
2019-02-18T03:19:59.848Z,83.60
2019-02-18T03:22:26.367Z,82.90
2019-02-18T03:25:11.164Z,82.90
2019-02-18T03:27:37.721Z,82.80
2019-02-18T03:30:22.573Z,82.90
2019-02-18T03:32:49.125Z,83.40
2019-02-18T03:35:16.949Z,83.70
2019-02-18T03:37:43.488Z,83.90
2019-02-18T03:40:10.512Z,83.80
2019-02-18T03:42:37.064Z,84.00
2019-02-18T03:45:04.021Z,84.10
2019-02-18T03:47:30.572Z,84.10
2019-02-18T03:49:57.094Z,84.50
2019-02-18T03:52:23.644Z,84.50
2019-02-18T03:54:50.165Z,84.10
2019-02-18T03:57:16.682Z,84.70
2019-02-18T03:59:43.242Z,85.60
2019-02-18T04:02:09.989Z,86.10
2019-02-18T04:04:36.513Z,86.40
2019-02-18T04:07:03.077Z,86.70
2019-02-18T04:09:29.642Z,87.30
2019-02-18T04:11:56.153Z,86.90
2019-02-18T04:14:22.712Z,87.30
2019-02-18T04:16:49.287Z,87.10
2019-02-18T04:19:15.798Z,87.00
2019-02-18T04:21:42.348Z,87.30
2019-02-18T04:24:08.864Z,87.50
2019-02-18T04:26:35.421Z,87.10
2019-02-18T04:29:01.934Z,87.30
2019-02-18T04:31:28.487Z,87.50
2019-02-18T04:33:55.005Z,88.00
2019-02-18T04:36:21.566Z,87.90
2019-02-18T04:38:54.111Z,88.10
2019-02-18T04:41:17.140Z,88.30
2019-02-18T04:43:43.698Z,88.60
2019-02-18T04:46:10.284Z,88.10
2019-02-18T04:48:36.802Z,88.10
2019-02-18T04:51:03.358Z,88.00
2019-02-18T04:53:29.913Z,88.20
2019-02-18T04:55:56.432Z,87.90
2019-02-18T04:58:22.990Z,88.70
2019-02-18T05:00:49.540Z,88.60
2019-02-18T05:03:16.056Z,88.50
2019-02-18T05:05:42.608Z,88.50
2019-02-18T05:08:09.157Z,88.20
2019-02-18T05:10:36.380Z,88.20
2019-02-18T05:13:03.336Z,88.70
2019-02-18T05:15:29.852Z,88.90
2019-02-18T05:17:56.370Z,89.10
2019-02-18T05:20:22.925Z,89.10
2019-02-18T05:22:51.268Z,89.50
2019-02-18T05:25:17.775Z,89.40
2019-02-18T05:27:44.332Z,89.40
2019-02-18T05:30:10.890Z,89.90
2019-02-18T05:32:37.417Z,90.10
2019-02-18T05:35:04.572Z,90.10
2019-02-18T05:37:31.090Z,89.90
2019-02-18T05:39:57.644Z,89.90
2019-02-18T05:42:24.202Z,89.90
2019-02-18T05:44:50.727Z,89.60
2019-02-18T05:47:17.318Z,89.50
2019-02-18T05:49:43.875Z,89.70
2019-02-18T05:52:10.399Z,89.40
2019-02-18T05:54:36.945Z,89.60
2019-02-18T05:57:03.504Z,89.60
2019-02-18T05:59:30.021Z,89.50
2019-02-18T06:01:56.589Z,89.70
2019-02-18T06:04:23.145Z,90.00
2019-02-18T06:06:49.661Z,90.00
2019-02-18T06:09:16.217Z,90.40
2019-02-18T06:11:42.773Z,90.80
2019-02-18T06:14:09.292Z,90.30
2019-02-18T06:16:35.843Z,90.30
2019-02-18T06:19:02.400Z,89.90
2019-02-18T06:21:28.917Z,90.00
2019-02-18T06:23:55.476Z,89.70
2019-02-18T06:26:22.029Z,89.60
2019-02-18T06:28:48.581Z,90.10
2019-02-18T06:31:15.108Z,89.80
2019-02-18T06:33:41.670Z,89.60
2019-02-18T06:36:08.181Z,89.60
2019-02-18T06:38:34.745Z,90.00
2019-02-18T06:41:01.262Z,90.60
2019-02-18T06:43:27.812Z,90.10
2019-02-18T06:46:05.263Z,90.70
2019-02-18T06:48:33.353Z,90.60
2019-02-18T06:50:59.909Z,90.00
2019-02-18T06:53:26.432Z,89.90
2019-02-18T06:55:52.989Z,89.70
2019-02-18T06:58:21.406Z,90.00
2019-02-18T07:01:01.537Z,89.40
2019-02-18T07:03:32.369Z,89.40
2019-02-18T07:06:15.926Z,89.30
2019-02-18T07:08:50.149Z,89.20
2019-02-18T07:11:21.911Z,89.00
2019-02-18T07:13:48.473Z,89.30
2019-02-18T07:16:14.988Z,89.10
2019-02-18T07:18:41.549Z,88.70
2019-02-18T07:21:08.061Z,87.90
2019-02-18T07:23:34.616Z,87.70
2019-02-18T07:26:01.132Z,87.00
2019-02-18T07:28:27.688Z,86.20
2019-02-18T07:30:54.206Z,86.30
2019-02-18T07:33:20.801Z,85.60
2019-02-18T07:35:47.357Z,84.80
2019-02-18T07:38:13.875Z,83.80
2019-02-18T07:40:40.429Z,83.30
2019-02-18T07:43:06.948Z,82.40
2019-02-18T07:45:33.509Z,81.80
2019-02-18T07:48:00.065Z,80.90
2019-02-18T07:50:26.656Z,80.60
2019-02-18T07:52:53.181Z,80.80
2019-02-18T07:55:19.732Z,80.50
2019-02-18T07:57:46.290Z,79.50
2019-02-18T08:00:13.305Z,79.10
2019-02-18T08:02:39.864Z,78.50
2019-02-18T08:05:06.380Z,77.80
2019-02-18T08:07:32.939Z,78.10
2019-02-18T08:09:59.488Z,78.70
2019-02-18T08:12:26.011Z,78.30
2019-02-18T08:14:52.560Z,77.20
2019-02-18T08:17:19.117Z,76.10
2019-02-18T08:19:45.633Z,75.60
2019-02-18T08:22:12.193Z,75.60
2019-02-18T08:24:38.749Z,75.60
2019-02-18T08:27:05.270Z,74.60
2019-02-18T08:29:31.826Z,74.50
2019-02-18T08:31:58.375Z,73.50
2019-02-18T08:34:24.892Z,73.60
2019-02-18T08:36:51.444Z,72.60
2019-02-18T08:39:17.969Z,72.70
2019-02-18T08:41:44.520Z,71.90
2019-02-18T08:44:11.085Z,72.40
2019-02-18T08:46:37.601Z,71.70
2019-02-18T08:49:04.195Z,71.50
2019-02-18T08:51:30.713Z,71.80
2019-02-18T08:54:00.049Z,70.20
2019-02-18T08:56:26.768Z,70.20
2019-02-18T08:58:53.328Z,70.20
2019-02-18T09:01:19.844Z,69.10
2019-02-18T09:03:46.402Z,67.30
2019-02-18T09:06:12.931Z,68.10
2019-02-18T09:08:39.569Z,68.40
2019-02-18T09:11:06.121Z,68.60
2019-02-18T09:13:32.850Z,68.40
2019-02-18T09:16:00.343Z,68.60
2019-02-18T09:18:27.157Z,69.10
2019-02-18T09:20:53.680Z,69.00
2019-02-18T09:23:27.809Z,68.30
2019-02-18T09:25:54.316Z,67.30
2019-02-18T09:28:20.904Z,67.00
2019-02-18T09:30:48.177Z,67.30
2019-02-18T09:33:14.696Z,66.80
2019-02-18T09:35:41.753Z,66.40
2019-02-18T09:38:08.319Z,66.70
2019-02-18T09:40:44.331Z,67.00
2019-02-18T09:43:03.219Z,66.70
2019-02-18T09:45:29.828Z,66.60
2019-02-18T09:47:56.442Z,68.40
2019-02-18T09:50:23.097Z,67.70
2019-02-18T09:52:49.709Z,68.50
2019-02-18T09:55:16.268Z,69.20
2019-02-18T09:57:42.785Z,68.90
2019-02-18T10:00:09.941Z,69.40
2019-02-18T10:02:36.637Z,68.30
2019-02-18T10:05:03.507Z,67.90
2019-02-18T10:07:30.020Z,67.90
2019-02-18T10:09:56.583Z,67.90
2019-02-18T10:12:23.157Z,67.60
2019-02-18T10:14:49.707Z,66.70
2019-02-18T10:17:16.379Z,66.60
2019-02-18T10:19:43.145Z,66.10
2019-02-18T10:22:09.837Z,65.40
2019-02-18T10:24:36.387Z,65.20
2019-02-18T10:27:03.135Z,64.90
2019-02-18T10:29:29.636Z,62.70
2019-02-18T10:31:56.198Z,62.80
2019-02-18T10:34:22.712Z,62.70
2019-02-18T10:36:49.470Z,61.60
2019-02-18T10:39:18.128Z,58.90
2019-02-18T10:41:44.669Z,58.30
2019-02-18T10:44:11.558Z,56.50
2019-02-18T10:46:40.527Z,57.50
2019-02-18T10:49:19.037Z,58.40
2019-02-18T10:51:34.781Z,56.50
2019-02-18T10:54:01.337Z,56.70
2019-02-18T10:56:28.077Z,57.80
2019-02-18T10:58:54.641Z,58.00
2019-02-18T11:01:21.152Z,58.30
2019-02-18T11:03:47.709Z,58.60
2019-02-18T11:06:14.271Z,59.00
2019-02-18T11:08:40.786Z,59.10
2019-02-18T11:11:16.470Z,59.30
2019-02-18T11:13:35.660Z,59.10
2019-02-18T11:16:02.230Z,58.80
2019-02-18T11:18:29.044Z,57.60
2019-02-18T11:20:55.602Z,57.60
2019-02-18T11:23:22.240Z,58.40
2019-02-18T11:25:49.068Z,58.30
2019-02-18T11:28:15.633Z,57.60
2019-02-18T11:30:42.146Z,57.50
2019-02-18T11:33:08.906Z,56.80
2019-02-18T11:35:35.417Z,56.50
2019-02-18T11:38:01.981Z,56.80
2019-02-18T11:40:28.535Z,56.60
2019-02-18T11:42:55.057Z,56.10
2019-02-18T11:45:21.611Z,55.90
2019-02-18T11:47:48.168Z,56.80
2019-02-18T11:50:14.692Z,56.30
2019-02-18T11:52:41.301Z,58.30
2019-02-18T11:55:09.657Z,58.20
2019-02-18T11:57:36.173Z,57.90
2019-02-18T12:00:03.628Z,58.00
2019-02-18T12:02:30.189Z,56.90
2019-02-18T12:04:56.704Z,57.80
2019-02-18T12:07:23.260Z,58.60
2019-02-18T12:09:49.822Z,59.60
2019-02-18T12:12:16.337Z,59.90
2019-02-18T12:14:43.093Z,58.80
2019-02-18T12:17:20.067Z,57.40
2019-02-18T12:19:37.964Z,57.50
2019-02-18T12:22:04.520Z,58.00
2019-02-18T12:24:31.185Z,58.40
2019-02-18T12:26:57.744Z,57.80
2019-02-18T12:29:36.132Z,56.70
2019-02-18T12:31:52.653Z,56.00
2019-02-18T12:34:19.270Z,56.50
2019-02-18T12:36:45.824Z,55.20
2019-02-18T12:39:13.680Z,56.00
2019-02-18T12:41:48.201Z,56.30
2019-02-18T12:44:08.556Z,56.70
2019-02-18T12:46:35.113Z,56.10
2019-02-18T12:49:02.566Z,55.30
2019-02-18T12:51:29.191Z,55.70
2019-02-18T12:54:04.812Z,55.00
2019-02-18T12:56:24.143Z,55.50
2019-02-18T12:59:29.190Z,55.60
2019-02-18T13:01:19.018Z,54.90
2019-02-18T13:03:45.532Z,54.90
2019-02-18T13:06:12.058Z,53.80
2019-02-18T13:08:38.617Z,53.70
2019-02-18T13:11:05.133Z,54.60
2019-02-18T13:13:31.701Z,55.60
2019-02-18T13:15:58.221Z,54.00
2019-02-18T13:18:24.906Z,53.60
2019-02-18T13:20:51.601Z,53.10
2019-02-18T13:23:18.152Z,53.10
2019-02-18T13:25:47.558Z,54.10
2019-02-18T13:28:13.047Z,54.50
2019-02-18T13:30:39.600Z,53.50
2019-02-18T13:33:06.125Z,53.10
2019-02-18T13:35:32.683Z,52.10
2019-02-18T13:37:59.204Z,51.50
2019-02-18T13:40:25.862Z,52.20
2019-02-18T13:42:52.376Z,52.00
2019-02-18T13:45:18.933Z,54.30
2019-02-18T13:47:45.457Z,52.10
2019-02-18T13:50:12.412Z,52.70
2019-02-18T13:52:40.140Z,53.50
2019-02-18T13:55:08.002Z,52.20
2019-02-18T13:57:34.560Z,53.00
2019-02-18T14:00:01.081Z,52.50
2019-02-18T14:02:27.636Z,53.50
2019-02-18T14:04:54.163Z,54.10
2019-02-18T14:07:20.721Z,54.30
2019-02-18T14:09:47.278Z,54.40
2019-02-18T14:12:16.233Z,54.40
2019-02-18T14:14:42.394Z,54.30
2019-02-18T14:17:09.219Z,53.60
2019-02-18T14:19:35.737Z,53.90
2019-02-18T14:22:02.488Z,54.00
2019-02-18T14:24:29.044Z,54.60
2019-02-18T14:26:55.563Z,55.20
2019-02-18T14:29:22.125Z,55.10
2019-02-18T14:31:48.681Z,54.90
2019-02-18T14:34:15.200Z,55.80
2019-02-18T14:36:41.972Z,55.30
2019-02-18T14:39:10.372Z,56.00
2019-02-18T14:41:36.933Z,57.10
2019-02-18T14:44:03.690Z,57.80
2019-02-18T14:46:30.208Z,58.20
2019-02-18T14:48:56.764Z,58.10
2019-02-18T14:51:23.320Z,58.40
2019-02-18T14:53:49.873Z,58.40
2019-02-18T14:56:16.564Z,58.80
2019-02-18T14:58:43.124Z,59.20
2019-02-18T15:01:10.146Z,59.50
2019-02-18T15:03:36.700Z,59.50
2019-02-18T15:06:03.259Z,59.20
2019-02-18T15:08:29.780Z,58.60
2019-02-18T15:10:56.332Z,59.30
2019-02-18T15:13:23.055Z,59.50
2019-02-18T15:15:49.609Z,59.70
2019-02-18T15:18:16.165Z,60.10
2019-02-18T15:20:42.689Z,60.00
2019-02-18T15:23:09.929Z,59.80
2019-02-18T15:25:36.485Z,59.20
2019-02-18T15:28:03.009Z,58.90
2019-02-18T15:30:29.568Z,58.90
2019-02-18T15:32:56.429Z,58.80
2019-02-18T15:35:22.944Z,58.00
2019-02-18T15:37:49.497Z,58.70
2019-02-18T15:40:17.321Z,58.50
2019-02-18T15:42:43.984Z,59.10
2019-02-18T15:45:10.538Z,59.40
2019-02-18T15:47:37.081Z,59.50
2019-02-18T15:50:05.009Z,60.50
2019-02-18T15:52:31.529Z,61.10
2019-02-18T15:54:58.125Z,62.00
2019-02-18T15:57:24.649Z,62.80
2019-02-18T15:59:51.207Z,63.90
2019-02-18T16:02:17.760Z,65.40
2019-02-18T16:04:44.284Z,65.50
2019-02-18T16:07:10.838Z,65.90
2019-02-18T16:09:37.753Z,66.20
2019-02-18T16:12:04.314Z,66.80
2019-02-18T16:14:30.872Z,67.70
2019-02-18T16:16:57.384Z,67.80
2019-02-18T16:19:23.944Z,68.70
2019-02-18T16:21:50.501Z,69.70
2019-02-18T16:24:20.029Z,69.50
2019-02-18T16:26:45.379Z,69.90
2019-02-18T16:29:12.224Z,70.30
2019-02-18T16:31:38.747Z,70.90
2019-02-18T16:34:05.405Z,71.20
2019-02-18T16:36:31.961Z,71.90
2019-02-18T16:38:58.867Z,72.30
2019-02-18T16:41:25.425Z,72.90
2019-02-18T16:43:51.986Z,73.50
2019-02-18T16:46:18.972Z,74.10
2019-02-18T16:48:46.425Z,74.20
2019-02-18T16:51:13.040Z,74.50
2019-02-18T16:53:39.561Z,74.80
2019-02-18T16:56:06.176Z,75.00
2019-02-18T16:58:32.695Z,75.10
2019-02-18T17:01:00.253Z,75.00
2019-02-18T17:03:26.772Z,75.60
2019-02-18T17:05:53.633Z,75.80
2019-02-18T17:08:20.149Z,75.60
2019-02-18T17:10:46.700Z,76.00
2019-02-18T17:13:13.213Z,76.70
2019-02-18T17:15:39.772Z,76.70
2019-02-18T17:18:06.333Z,76.30
2019-02-18T17:20:32.848Z,76.70
2019-02-18T17:22:59.504Z,76.90
2019-02-18T17:25:26.320Z,76.90
2019-02-18T17:27:52.877Z,78.30
2019-02-18T17:30:19.437Z,78.70
2019-02-18T17:32:46.060Z,78.60
2019-02-18T17:35:13.022Z,78.90
2019-02-18T17:37:39.742Z,78.70
2019-02-18T17:40:10.057Z,79.30
2019-02-18T17:42:36.613Z,79.00
2019-02-18T17:45:04.236Z,79.60
2019-02-18T17:47:30.789Z,79.90
2019-02-18T17:49:57.303Z,80.20
2019-02-18T17:52:23.861Z,80.10
2019-02-18T17:54:50.385Z,80.50
2019-02-18T17:57:16.981Z,81.00
2019-02-18T17:59:43.536Z,80.70
2019-02-18T18:02:10.092Z,80.60
2019-02-18T18:04:36.661Z,80.80
2019-02-18T18:07:03.185Z,81.30
2019-02-18T18:09:29.786Z,81.60
2019-02-18T18:11:56.341Z,81.80
2019-02-18T18:14:22.860Z,82.40
2019-02-18T18:16:49.473Z,82.50
2019-02-18T18:19:16.024Z,82.10
2019-02-18T18:21:42.940Z,82.10
2019-02-18T18:24:09.496Z,82.60
2019-02-18T18:26:36.349Z,83.00
2019-02-18T18:29:02.868Z,82.50
2019-02-18T18:31:29.421Z,82.60
2019-02-18T18:33:55.980Z,82.50
2019-02-18T18:36:22.501Z,82.00
2019-02-18T18:38:49.061Z,82.20
2019-02-18T18:41:16.322Z,82.40
2019-02-18T18:43:42.840Z,82.60
2019-02-18T18:46:09.393Z,83.20
2019-02-18T18:48:35.912Z,83.50
2019-02-18T18:51:02.473Z,83.70
2019-02-18T18:53:28.992Z,83.80
2019-02-18T18:55:55.556Z,83.80
2019-02-18T18:58:22.223Z,83.70
2019-02-18T19:00:48.768Z,83.10
2019-02-18T19:03:15.289Z,82.70
2019-02-18T19:05:41.848Z,82.30
2019-02-18T19:08:08.432Z,81.80
2019-02-18T19:10:34.933Z,81.00
2019-02-18T19:13:01.492Z,81.20
2019-02-18T19:15:28.013Z,81.30
2019-02-18T19:17:54.782Z,80.90
2019-02-18T19:20:21.301Z,81.00
2019-02-18T19:22:47.852Z,81.20
2019-02-18T19:25:14.372Z,81.90
2019-02-18T19:27:40.946Z,81.80
2019-02-18T19:30:12.588Z,81.90
2019-02-18T19:32:39.152Z,82.30
2019-02-18T19:35:06.712Z,82.00
2019-02-18T19:37:33.265Z,82.20
2019-02-18T19:39:59.822Z,82.70
2019-02-18T19:42:26.341Z,82.80
2019-02-18T19:44:55.710Z,82.50
2019-02-18T19:47:22.243Z,82.40
2019-02-18T19:49:48.911Z,82.40
2019-02-18T19:52:15.736Z,82.30
2019-02-18T19:54:42.264Z,82.60
2019-02-18T19:57:10.009Z,83.20
2019-02-18T19:59:36.629Z,83.70
2019-02-18T20:02:03.235Z,84.00
2019-02-18T20:04:29.753Z,84.10
2019-02-18T20:06:56.308Z,84.50
2019-02-18T20:09:24.124Z,85.40
2019-02-18T20:11:52.368Z,84.90
2019-02-18T20:14:18.885Z,84.60
2019-02-18T20:16:45.693Z,84.70
2019-02-18T20:19:12.253Z,84.60
2019-02-18T20:21:38.773Z,84.70
2019-02-18T20:24:05.341Z,85.20
2019-02-18T20:26:31.860Z,84.80
2019-02-18T20:28:58.419Z,84.80
2019-02-18T20:31:25.901Z,85.00
2019-02-18T20:33:52.557Z,84.70
2019-02-18T20:36:20.881Z,84.90
2019-02-18T20:38:47.437Z,84.90
2019-02-18T20:41:13.952Z,84.90
2019-02-18T20:43:40.468Z,84.80
2019-02-18T20:46:07.229Z,84.80
2019-02-18T20:48:33.745Z,84.40
2019-02-18T20:51:00.409Z,84.70
2019-02-18T20:53:27.228Z,85.20
2019-02-18T20:55:53.796Z,85.30
2019-02-18T20:58:20.332Z,85.20
2019-02-18T21:00:46.908Z,85.20
2019-02-18T21:03:13.528Z,85.40
2019-02-18T21:05:40.506Z,85.30
2019-02-18T21:08:07.037Z,85.30
2019-02-18T21:10:33.554Z,85.50
2019-02-18T21:13:00.390Z,85.60
2019-02-18T21:15:26.973Z,85.40
2019-02-18T21:17:53.532Z,85.50
2019-02-18T21:20:20.096Z,85.50
2019-02-18T21:22:47.015Z,85.60
2019-02-18T21:25:13.568Z,85.60
2019-02-18T21:27:40.116Z,85.20
2019-02-18T21:30:08.336Z,85.30
2019-02-18T21:32:34.897Z,85.40
2019-02-18T21:35:01.418Z,85.10
2019-02-18T21:37:27.968Z,84.60
2019-02-18T21:39:54.489Z,84.50
2019-02-18T21:42:21.053Z,84.50
2019-02-18T21:44:47.580Z,84.60
2019-02-18T21:47:14.132Z,84.40
2019-02-18T21:49:40.718Z,84.30
2019-02-18T21:52:07.236Z,84.10
2019-02-18T21:54:33.803Z,84.30
2019-02-18T21:57:00.315Z,84.60
2019-02-18T21:59:27.271Z,84.60
2019-02-18T22:01:53.838Z,84.90
2019-02-18T22:04:20.385Z,84.70
2019-02-18T22:06:46.946Z,85.10
2019-02-18T22:09:13.460Z,85.40
2019-02-18T22:11:40.016Z,85.20
2019-02-18T22:14:06.544Z,85.30
2019-02-18T22:16:33.153Z,85.50
2019-02-18T22:18:59.725Z,85.20
2019-02-18T22:21:26.240Z,85.50
2019-02-18T22:23:52.798Z,85.60
2019-02-18T22:26:19.352Z,85.00
2019-02-18T22:28:45.868Z,84.80
2019-02-18T22:31:12.425Z,85.10
2019-02-18T22:33:39.045Z,85.00
2019-02-18T22:36:05.606Z,85.10
2019-02-18T22:38:32.137Z,84.90
2019-02-18T22:40:58.985Z,84.70
2019-02-18T22:43:25.514Z,84.90
2019-02-18T22:45:52.066Z,85.20
2019-02-18T22:48:18.621Z,85.10
2019-02-18T22:50:45.141Z,85.50
2019-02-18T22:53:11.697Z,85.40
2019-02-18T22:55:38.207Z,85.30
2019-02-18T22:58:04.765Z,85.10
2019-02-18T23:00:52.813Z,85.10
2019-02-18T23:03:20.113Z,85.20
2019-02-18T23:05:46.665Z,85.70
2019-02-18T23:08:13.191Z,85.80
2019-02-18T23:10:39.744Z,86.20
2019-02-18T23:13:06.760Z,86.20
2019-02-18T23:15:33.713Z,86.30
2019-02-18T23:18:00.233Z,85.80
2019-02-18T23:20:26.787Z,85.80
2019-02-18T23:22:53.361Z,86.10
2019-02-18T23:25:20.169Z,86.10
2019-02-18T23:27:46.724Z,85.70
2019-02-18T23:30:13.247Z,85.50
2019-02-18T23:32:39.800Z,85.60
2019-02-18T23:35:06.321Z,86.20
2019-02-18T23:37:33.168Z,86.10
2019-02-18T23:39:59.723Z,86.10
2019-02-18T23:42:26.240Z,86.10
2019-02-18T23:44:59.145Z,86.00
2019-02-18T23:47:21.111Z,85.80
2019-02-18T23:49:47.673Z,85.80
2019-02-18T23:52:14.187Z,85.50
2019-02-18T23:54:40.769Z,85.10
2019-02-18T23:57:07.288Z,85.10
2019-02-18T23:59:33.846Z,85.30
